aviador You're here:

KSLE Decoded Metar

SALEM in OR, USA
Report Time2018-02-22 11:56:00
UTC Time2018-02-22 12:30:55
Flight Rules mvfr MVFR
Wind160° at 08 kt
W.Decomp.*RWY 13: 7.8 kt HW 1.8 kt RCW
RWY 16: 7.7 kt HW 2.3 kt LCW
W.Rank160° ranks 4
Current wind is above 160° avg. (6.4)
Visibility9999 m
Phenomena:N/A
Clouds:Scattered 012 Hf
Broken 027 Hf
Overcast 039 Hf
Expected CloudBase > 800 ft AGL from Temp-Dew spread
Ceiling2,700 ft
Temp01°C (ISA -14)
Dew Point-1°C (87% RH)
AAT-4.0°C
QNH1018 hPa
Density Alt-1,558 ft
Elevation194 ft
Report Wrong Elevation
Raw Report
KSLE 221156Z AUTO 16008KT 9SM SCT012 BKN027 OVC039 01/M01 A3006
RMK AO2 SLP181 60004 70005 T00111006 10011 20006 56011=

Extra information for KSLE:More info

Metar Taf Metar & Taf Last 4 Metars F.Rules Stats Wind Profile Meteogram Temp Stats Airport Information Weather charts Add Link Nearby VenuesMetar ALERT Operation Metar Decoded Social comments

AIRNAV info for KSLE